< Typhoon 196322 1963 Season Typhoon 196324 >
Typhoon 196323 (RITA)
General InformationTrack Information on Google Maps || Disaster Info.ResourceGoogle EarthGE AnimationAtom FeedGeoJSON
Detalied Best Track (Time Zone = UTC)
Year Month Day Hour Lat. Long. Pressure (hPa) Wind (kt) Class Image Chart
1963 12 15 00 12.0 130.6 1010 0 2 -- Chart
1963 12 15 06 12.1 129.5 1008 0 2 -- Chart
1963 12 15 12 12.3 128.5 1006 0 2 -- Chart
1963 12 15 18 12.5 127.5 1004 0 2 -- Chart
1963 12 16 00 13.0 126.5 1004 0 2 -- Chart
1963 12 16 06 13.6 125.8 1004 0 2 -- Chart
1963 12 16 12 14.2 125.3 1002 0 2 -- Chart
1963 12 16 18 14.9 124.7 1000 0 9 -- Chart
1963 12 17 00 15.8 124.4 1000 0 9 -- Chart
1963 12 17 06 16.8 124.4 1000 0 9 -- Chart
1963 12 17 12 17.7 124.1 1000 0 9 -- Chart
1963 12 17 18 18.2 124.3 1000 0 9 -- Chart
1963 12 18 00 18.8 124.6 998 0 9 -- Chart
1963 12 18 06 19.1 125.1 998 0 9 -- Chart
1963 12 18 12 19.5 126.1 998 0 9 -- Chart
1963 12 18 18 19.7 127.0 998 0 9 -- Chart
1963 12 19 00 19.7 128.3 1000 0 9 -- Chart
1963 12 19 06 19.8 129.6 1002 0 9 -- Chart
1963 12 19 12 19.9 130.9 1006 0 2 -- Chart
1963 12 19 18 20.0 132.9 1010 0 6 -- Chart
1963 12 20 00 20.9 135.0 1010 0 6 -- Chart
1963 12 20 06 21.3 137.8 1008 0 6 -- Chart
1963 12 20 12 22.2 140.9 1013 0 6 -- Chart
1963 12 20 18 23.9 142.9 1014 0 6 -- Chart
1963 12 21 00 25.3 144.7 1010 0 6 -- Chart
1963 12 21 06 26.0 146.7 1012 0 6 -- Chart
1963 12 21 12 26.5 148.6 1012 0 6 -- Chart
1963 12 21 18 27.1 151.0 1012 0 6 -- Chart
1963 12 22 00 29.1 153.1 1010 0 6 -- Chart
Japan Meteorological Agency Best Track Data | Correction Date : 1989-06-01
< Typhoon 196322 1963 Season Typhoon 196324 >

Help